Tenko Maru — HPRN — position and weather

sailwx.info

Track history (hours):
 
Tides and Currents Weather Stations Pressure Air Temp Water Temp Dewpoint Dewpoint Depression Visibility Wind Speed Wind Dir Waves Ship Positions

Tenko Maru

Last reported at 2015-Apr-12 21:15 UTC. Time now 2015-Apr-28 18:20 UTC.
Position S 32°30' E 152°45'.
Warning: this ship's position is 15 days out of date.

Length 190 m; draft 12 m.

Type: Cargo ship. MMSI: 370715000.

Date/timePositionNaut miles runAvg speedWind from/ knotsBaromVisibWave heightAir tempDewpointWater temp
2015-Apr-12 21:15S 32°30' E 152°45'810.9
2015-Apr-12 20:33S 32°35' E 152°38'1110.9
2015-Apr-12 19:33S 32°42' E 152°28'1111.0
2015-Apr-12 18:33S 32°48' E 152°17'1110.9
2015-Apr-12 17:33S 32°53' E 152°06'1110.9
2015-Apr-12 16:33S 32°56' E 151°53'6 5.8
2015-Apr-12 15:33S 32°55' E 151°46'1 0.5
2015-Apr-12 14:32S 32°54' E 151°46'0 0.1
2015-Apr-12 13:32S 32°54' E 151°46'0 0.0
2015-Apr-12 12:32S 32°54' E 151°46'0 0.0
2015-Apr-12 11:32S 32°54' E 151°46'0 0.0
2015-Apr-12 10:32S 32°54' E 151°46'0 0.0
2015-Apr-12 09:32S 32°54' E 151°46'0 0.0
2015-Apr-12 08:32S 32°54' E 151°46'0 0.0
2015-Apr-12 07:32S 32°54' E 151°46'0 0.0
2015-Apr-12 06:32S 32°54' E 151°46'0 0.0
2015-Apr-12 05:32S 32°54' E 151°46'0 0.0
2015-Apr-12 04:32S 32°54' E 151°46'0 0.0
2015-Apr-12 03:32S 32°54' E 151°46'0 0.0
2015-Apr-12 02:26S 32°54' E 151°46'0 0.0
2015-Apr-12 01:32S 32°54' E 151°46'0 0.0
2015-Apr-12 00:32S 32°54' E 151°46'0 0.0
2015-Apr-11 23:32S 32°54' E 151°46'0 0.0
2015-Apr-11 22:32S 32°54' E 151°46'0 0.0
2015-Apr-11 21:32S 32°54' E 151°46'0 0.0
2015-Apr-11 20:29S 32°54' E 151°46'0 0.1
2015-Apr-11 19:32S 32°54' E 151°46'0 0.1
2015-Apr-11 18:32S 32°54' E 151°46'0 0.0
2015-Apr-11 17:32S 32°54' E 151°46'0 0.0
2015-Apr-11 16:32S 32°54' E 151°46'0 0.0
2015-Apr-11 15:32S 32°54' E 151°46'0 0.1
2015-Apr-11 14:32S 32°54' E 151°46'0 0.1
2015-Apr-11 13:32S 32°54' E 151°46'0 0.0
2015-Apr-11 12:32S 32°54' E 151°46'0 0.0
2015-Apr-11 11:32S 32°54' E 151°46'0 0.0
2015-Apr-11 10:32S 32°54' E 151°46'0 0.0
2015-Apr-11 09:32S 32°54' E 151°46'0 0.4
2015-Apr-11 08:33S 32°54' E 151°46'5 5.4
2015-Apr-11 07:33S 32°57' E 151°51'4 4.0
2015-Apr-11 06:33S 33°00' E 151°54'9 9.0
2015-Apr-11 05:33S 33°05' E 152°03'1 1.3
2015-Apr-11 04:33S 33°07' E 152°03'1 0.9
2015-Apr-11 03:33S 33°08' E 152°02'1 1.0
2015-Apr-11 02:33S 33°09' E 152°02'1 1.1
2015-Apr-11 01:33S 33°08' E 152°01'7 7.1
2015-Apr-11 00:33S 33°02' E 151°56'1010.0
2015-Apr-10 23:33S 33°10' E 152°04'17 2.8
2015-Apr-10 17:33S 33°16' E 152°23'13 3.9
2015-Apr-10 14:11S 33°08' E 152°36'7 3.9
2015-Apr-10 12:20S 33°05' E 152°44'8 3.7
2015-Apr-10 10:16S 33°00' E 152°51'  
Track history (hours):
 
Tides and Currents Weather Stations Pressure Air Temp Water Temp Dewpoint Dewpoint Depression Visibility Wind Speed Wind Dir Waves Ship Positions

Tenko Maru

Last reported at 2015-Apr-12 21:15 UTC. Time now 2015-Apr-28 18:20 UTC.
Position S 32°30' E 152°45'.
Warning: this ship's position is 15 days out of date.

Length 190 m; draft 12 m.

Type: Cargo ship. MMSI: 370715000.

Date/timePositionNaut miles runAvg speedWind from/ knotsBaromVisibWave heightAir tempDewpointWater temp
2015-Apr-12 21:15S 32°30' E 152°45'810.9
2015-Apr-12 20:33S 32°35' E 152°38'1110.9
2015-Apr-12 19:33S 32°42' E 152°28'1111.0
2015-Apr-12 18:33S 32°48' E 152°17'1110.9
2015-Apr-12 17:33S 32°53' E 152°06'1110.9
2015-Apr-12 16:33S 32°56' E 151°53'6 5.8
2015-Apr-12 15:33S 32°55' E 151°46'1 0.5
2015-Apr-12 14:32S 32°54' E 151°46'0 0.1
2015-Apr-12 13:32S 32°54' E 151°46'0 0.0
2015-Apr-12 12:32S 32°54' E 151°46'0 0.0
2015-Apr-12 11:32S 32°54' E 151°46'0 0.0
2015-Apr-12 10:32S 32°54' E 151°46'0 0.0
2015-Apr-12 09:32S 32°54' E 151°46'0 0.0
2015-Apr-12 08:32S 32°54' E 151°46'0 0.0
2015-Apr-12 07:32S 32°54' E 151°46'0 0.0
2015-Apr-12 06:32S 32°54' E 151°46'0 0.0
2015-Apr-12 05:32S 32°54' E 151°46'0 0.0
2015-Apr-12 04:32S 32°54' E 151°46'0 0.0
2015-Apr-12 03:32S 32°54' E 151°46'0 0.0
2015-Apr-12 02:26S 32°54' E 151°46'0 0.0
2015-Apr-12 01:32S 32°54' E 151°46'0 0.0
2015-Apr-12 00:32S 32°54' E 151°46'0 0.0
2015-Apr-11 23:32S 32°54' E 151°46'0 0.0
2015-Apr-11 22:32S 32°54' E 151°46'0 0.0
2015-Apr-11 21:32S 32°54' E 151°46'0 0.0
2015-Apr-11 20:29S 32°54' E 151°46'0 0.1
2015-Apr-11 19:32S 32°54' E 151°46'0 0.1
2015-Apr-11 18:32S 32°54' E 151°46'0 0.0
2015-Apr-11 17:32S 32°54' E 151°46'0 0.0
2015-Apr-11 16:32S 32°54' E 151°46'0 0.0
2015-Apr-11 15:32S 32°54' E 151°46'0 0.1
2015-Apr-11 14:32S 32°54' E 151°46'0 0.1
2015-Apr-11 13:32S 32°54' E 151°46'0 0.0
2015-Apr-11 12:32S 32°54' E 151°46'0 0.0
2015-Apr-11 11:32S 32°54' E 151°46'0 0.0
2015-Apr-11 10:32S 32°54' E 151°46'0 0.0
2015-Apr-11 09:32S 32°54' E 151°46'0 0.4
2015-Apr-11 08:33S 32°54' E 151°46'5 5.4
2015-Apr-11 07:33S 32°57' E 151°51'4 4.0
2015-Apr-11 06:33S 33°00' E 151°54'9 9.0
2015-Apr-11 05:33S 33°05' E 152°03'1 1.3
2015-Apr-11 04:33S 33°07' E 152°03'1 0.9
2015-Apr-11 03:33S 33°08' E 152°02'1 1.0
2015-Apr-11 02:33S 33°09' E 152°02'1 1.1
2015-Apr-11 01:33S 33°08' E 152°01'7 7.1
2015-Apr-11 00:33S 33°02' E 151°56'1010.0
2015-Apr-10 23:33S 33°10' E 152°04'17 2.8
2015-Apr-10 17:33S 33°16' E 152°23'13 3.9
2015-Apr-10 14:11S 33°08' E 152°36'7 3.9
2015-Apr-10 12:20S 33°05' E 152°44'8 3.7
2015-Apr-10 10:16S 33°00' E 152°51'  

Dump ship's entire track history